Laguna de Duero, Spain
Current Conditions -  °F | °C
As of 6:00 PM on Friday 28 Nov 2014 (Local Time) from LEVD Reporting Station
Broken Clouds Broken Clouds  
Wind Chill: 48°   Ceiling: 4000
Heat Index: 48°   Visibility: 6mi
Dew Point: 45°   Wind: 1mph
Humidity: 87%   Direction: 10°N
Pressure: 29.18"   Gusts: NA
Location:  41.58°N, 4.72°W
Report Text: LEVD 281700Z 01001KT 9999 SCT025 BKN040 09/07 Q0988
Loading
Personal Weather Stations






























Interactive Weather Map New forecast layout! Learn more

10-Day Weather Forecast

Advertisements
Track Severe Weather on mobile